createdAt,value
2018-08-22T00:00:08.625Z,99.90
2018-08-22T00:02:37.624Z,99.90
2018-08-22T00:05:06.678Z,99.90
2018-08-22T00:07:35.669Z,99.90
2018-08-22T00:10:04.794Z,99.90
2018-08-22T00:12:33.832Z,99.90
2018-08-22T00:15:02.839Z,99.90
2018-08-22T00:17:31.968Z,99.90
2018-08-22T00:20:01.105Z,99.90
2018-08-22T00:22:30.142Z,99.90
2018-08-22T00:24:59.193Z,99.90
2018-08-22T00:27:28.198Z,99.90
2018-08-22T00:29:57.221Z,99.90
2018-08-22T00:32:26.258Z,99.90
2018-08-22T00:34:55.305Z,99.90
2018-08-22T00:37:24.336Z,99.90
2018-08-22T00:39:53.332Z,99.90
2018-08-22T00:42:22.365Z,99.90
2018-08-22T00:44:51.485Z,99.90
2018-08-22T00:47:20.518Z,99.90
2018-08-22T00:49:49.545Z,99.90
2018-08-22T00:52:18.621Z,99.90
2018-08-22T00:54:47.646Z,99.90
2018-08-22T00:57:16.674Z,99.90
2018-08-22T00:59:45.702Z,99.90
2018-08-22T01:02:14.777Z,99.90
2018-08-22T01:04:43.785Z,99.90
2018-08-22T01:07:12.826Z,99.90
2018-08-22T01:09:41.819Z,99.90
2018-08-22T01:12:10.853Z,99.90
2018-08-22T01:14:39.889Z,99.90
2018-08-22T01:17:08.963Z,99.90
2018-08-22T01:19:37.989Z,99.90
2018-08-22T01:22:07.242Z,99.90
2018-08-22T01:24:36.280Z,99.90
2018-08-22T01:27:05.333Z,99.90
2018-08-22T01:29:34.347Z,99.90
2018-08-22T01:32:03.369Z,99.90
2018-08-22T01:34:32.359Z,99.90
2018-08-22T01:37:01.381Z,99.90
2018-08-22T01:39:30.401Z,99.90
2018-08-22T01:41:59.389Z,99.90
2018-08-22T01:44:28.417Z,99.90
2018-08-22T01:46:57.409Z,99.90
2018-08-22T01:49:26.445Z,99.90
2018-08-22T01:51:55.474Z,99.90
2018-08-22T01:54:24.497Z,99.90
2018-08-22T01:56:53.577Z,99.90
2018-08-22T01:59:22.576Z,99.90
2018-08-22T02:01:51.665Z,99.90
2018-08-22T02:04:20.821Z,99.90
2018-08-22T02:06:50.076Z,99.90
2018-08-22T02:09:19.110Z,99.90
2018-08-22T02:11:48.113Z,99.90
2018-08-22T02:14:17.137Z,99.90
2018-08-22T02:16:46.150Z,99.90
2018-08-22T02:19:15.382Z,99.90
2018-08-22T02:21:44.424Z,99.90
2018-08-22T02:24:13.430Z,99.90
2018-08-22T02:26:42.467Z,99.90
2018-08-22T02:29:11.509Z,99.90
2018-08-22T02:31:40.514Z,99.90
2018-08-22T02:34:09.561Z,99.90
2018-08-22T02:36:38.582Z,99.90
2018-08-22T02:39:08.653Z,99.90
2018-08-22T02:41:37.742Z,99.90
2018-08-22T02:44:06.737Z,99.90
2018-08-22T02:46:35.761Z,99.90
2018-08-22T02:49:04.770Z,99.90
2018-08-22T02:51:33.791Z,99.90
2018-08-22T02:54:02.802Z,99.90
2018-08-22T02:56:31.822Z,99.90
2018-08-22T02:59:00.870Z,99.90
2018-08-22T03:01:29.950Z,99.90
2018-08-22T03:03:58.962Z,99.90
2018-08-22T03:06:27.951Z,99.90
2018-08-22T03:08:56.977Z,99.90
2018-08-22T03:11:26.005Z,99.90
2018-08-22T03:13:55.026Z,99.90
2018-08-22T03:16:24.053Z,99.90
2018-08-22T03:18:53.065Z,99.90
2018-08-22T03:21:22.130Z,99.90
2018-08-22T03:23:51.162Z,99.90
2018-08-22T03:26:20.167Z,99.90
2018-08-22T03:28:49.199Z,99.90
2018-08-22T03:31:18.310Z,99.90
2018-08-22T03:33:47.314Z,99.90
2018-08-22T03:36:16.378Z,99.90
2018-08-22T03:38:45.377Z,99.90
2018-08-22T03:41:14.397Z,99.90
2018-08-22T03:43:43.473Z,99.90
2018-08-22T03:46:12.510Z,99.90
2018-08-22T03:48:41.561Z,99.90
2018-08-22T03:51:10.542Z,99.90
2018-08-22T03:53:39.593Z,99.90
2018-08-22T03:56:08.618Z,99.90
2018-08-22T03:58:37.769Z,99.90
2018-08-22T04:01:06.823Z,99.90
2018-08-22T04:03:35.845Z,99.90
2018-08-22T04:06:04.882Z,99.90
2018-08-22T04:08:33.878Z,99.90
2018-08-22T04:11:02.914Z,99.90
2018-08-22T04:13:31.943Z,99.90
2018-08-22T04:16:00.946Z,99.90
2018-08-22T04:21:41.426Z,99.90
2018-08-22T04:24:10.566Z,99.90
2018-08-22T04:26:39.594Z,99.90
2018-08-22T04:29:08.594Z,99.90
2018-08-22T04:31:37.686Z,99.90
2018-08-22T04:34:06.722Z,99.90
2018-08-22T04:36:35.770Z,99.90
2018-08-22T04:39:06.139Z,99.90
2018-08-22T04:41:35.166Z,99.90
2018-08-22T04:44:04.209Z,99.90
2018-08-22T04:46:33.554Z,99.90
2018-08-22T04:49:02.630Z,99.90
2018-08-22T04:51:31.641Z,99.90
2018-08-22T04:54:00.739Z,99.90
2018-08-22T04:58:58.466Z,99.90
2018-08-22T05:01:27.500Z,99.90
2018-08-22T05:03:56.493Z,99.90
2018-08-22T05:06:25.530Z,99.90
2018-08-22T05:08:54.566Z,99.90
2018-08-22T05:11:23.570Z,99.90
2018-08-22T05:13:52.597Z,99.90
2018-08-22T05:16:21.658Z,99.90
2018-08-22T05:18:50.708Z,99.90
2018-08-22T05:21:19.795Z,99.90
2018-08-22T05:23:48.802Z,99.90
2018-08-22T05:26:17.843Z,99.90
2018-08-22T05:28:46.890Z,99.90
2018-08-22T05:31:15.966Z,99.90
2018-08-22T05:33:45.024Z,99.90
2018-08-22T05:36:14.026Z,99.90
2018-08-22T05:38:43.088Z,99.90
2018-08-22T05:41:12.089Z,99.90
2018-08-22T05:43:41.478Z,99.90
2018-08-22T05:46:10.515Z,99.90
2018-08-22T05:48:39.541Z,99.90
2018-08-22T05:51:08.831Z,99.90
2018-08-22T05:53:37.842Z,99.90
2018-08-22T05:56:06.948Z,99.90
2018-08-22T05:58:36.339Z,99.90
2018-08-22T06:01:05.679Z,99.90
2018-08-22T06:03:35.022Z,99.90
2018-08-22T06:06:04.335Z,99.90
2018-08-22T06:08:33.624Z,99.90
2018-08-22T06:11:02.967Z,99.90
2018-08-22T06:13:32.299Z,99.90
2018-08-22T06:16:01.623Z,99.90
2018-08-22T06:18:30.892Z,99.90
2018-08-22T06:21:00.227Z,99.90
2018-08-22T06:23:29.558Z,99.90
2018-08-22T06:25:58.920Z,99.90
2018-08-22T06:28:28.290Z,99.90
2018-08-22T06:30:57.691Z,99.90
2018-08-22T06:33:26.987Z,99.90
2018-08-22T06:35:56.341Z,99.90
2018-08-22T06:38:25.615Z,99.90
2018-08-22T06:40:54.803Z,99.90
2018-08-22T06:43:24.131Z,99.90
2018-08-22T06:45:53.428Z,99.90
2018-08-22T06:48:23.248Z,99.90
2018-08-22T06:50:52.633Z,99.90
2018-08-22T06:53:21.931Z,99.90
2018-08-22T06:55:51.288Z,99.90
2018-08-22T06:58:20.620Z,99.90
2018-08-22T07:00:49.968Z,99.90
2018-08-22T07:03:19.227Z,99.90
2018-08-22T07:05:48.477Z,99.90
2018-08-22T07:08:17.815Z,99.90
2018-08-22T07:10:47.135Z,99.90
2018-08-22T07:13:16.496Z,99.90
2018-08-22T07:15:45.912Z,99.90
2018-08-22T07:18:15.211Z,99.90
2018-08-22T07:20:44.577Z,99.90
2018-08-22T07:23:13.852Z,99.90
2018-08-22T07:25:43.191Z,99.90
2018-08-22T07:28:12.595Z,99.90
2018-08-22T07:30:41.795Z,99.90
2018-08-22T07:33:11.123Z,99.90
2018-08-22T07:35:40.413Z,99.90
2018-08-22T07:38:09.657Z,99.90
2018-08-22T07:40:39.043Z,99.90
2018-08-22T07:43:09.244Z,99.90
2018-08-22T07:45:38.595Z,99.90
2018-08-22T07:48:07.851Z,99.90
2018-08-22T07:50:37.246Z,99.90
2018-08-22T07:53:06.769Z,99.90
2018-08-22T07:55:39.618Z,99.90
2018-08-22T07:58:08.948Z,99.90
2018-08-22T08:00:38.365Z,99.90
2018-08-22T08:03:07.742Z,99.90
2018-08-22T08:05:37.157Z,99.90
2018-08-22T08:08:06.540Z,99.90
2018-08-22T08:10:36.931Z,99.90
2018-08-22T08:13:15.594Z,99.90
2018-08-22T08:15:44.847Z,99.90
2018-08-22T08:18:14.138Z,99.90
2018-08-22T08:20:43.497Z,99.90
2018-08-22T08:23:12.817Z,99.90
2018-08-22T08:25:42.071Z,99.90
2018-08-22T08:28:16.632Z,99.90
2018-08-22T08:30:45.920Z,99.90
2018-08-22T08:33:15.358Z,99.90
2018-08-22T08:35:44.675Z,99.90
2018-08-22T08:38:13.971Z,99.90
2018-08-22T08:40:43.201Z,99.90
2018-08-22T08:43:12.509Z,99.90
2018-08-22T08:45:42.296Z,99.90
2018-08-22T08:48:11.598Z,99.90
2018-08-22T08:50:40.942Z,99.90
2018-08-22T08:53:10.263Z,99.90
2018-08-22T08:55:39.579Z,99.90
2018-08-22T08:58:08.886Z,99.90
2018-08-22T09:00:38.203Z,99.90
2018-08-22T09:03:07.500Z,99.90
2018-08-22T09:05:36.763Z,99.90
2018-08-22T09:08:06.051Z,99.90
2018-08-22T09:10:35.415Z,99.90
2018-08-22T09:13:06.735Z,99.90
2018-08-22T09:15:36.194Z,99.80
2018-08-22T09:18:05.521Z,99.10
2018-08-22T09:20:34.850Z,99.90
2018-08-22T09:23:04.282Z,99.90
2018-08-22T09:25:33.620Z,96.10
2018-08-22T09:28:02.904Z,99.90
2018-08-22T09:30:32.225Z,96.30
2018-08-22T09:33:01.730Z,95.20
2018-08-22T09:35:31.379Z,97.50
2018-08-22T09:38:00.759Z,93.20
2018-08-22T09:40:30.208Z,95.90
2018-08-22T09:42:59.919Z,96.80
2018-08-22T09:45:29.272Z,92.30
2018-08-22T09:47:58.659Z,92.80
2018-08-22T09:50:28.033Z,91.20
2018-08-22T09:52:57.340Z,93.60
2018-08-22T09:55:26.647Z,90.10
2018-08-22T09:57:55.963Z,85.50
2018-08-22T10:00:30.472Z,87.30
2018-08-22T10:02:59.776Z,84.70
2018-08-22T10:05:29.135Z,88.40
2018-08-22T10:07:58.456Z,85.80
2018-08-22T10:10:27.867Z,80.60
2018-08-22T10:12:57.202Z,82.00
2018-08-22T10:15:26.548Z,80.30
2018-08-22T10:17:57.935Z,79.30
2018-08-22T10:20:27.232Z,81.00
2018-08-22T10:22:56.618Z,78.80
2018-08-22T10:25:25.909Z,77.10
2018-08-22T10:27:55.255Z,76.40
2018-08-22T10:30:24.560Z,73.80
2018-08-22T10:32:54.199Z,77.40
2018-08-22T10:35:23.455Z,77.90
2018-08-22T10:37:52.708Z,75.00
2018-08-22T10:40:22.091Z,71.60
2018-08-22T10:42:52.306Z,80.40
2018-08-22T10:45:21.704Z,69.40
2018-08-22T10:47:54.745Z,76.60
2018-08-22T10:50:24.091Z,71.60
2018-08-22T10:52:53.451Z,67.20
2018-08-22T10:55:22.767Z,67.50
2018-08-22T10:57:52.063Z,66.70
2018-08-22T11:00:21.300Z,70.20
2018-08-22T11:02:50.639Z,68.50
2018-08-22T11:05:19.962Z,66.50
2018-08-22T11:07:49.352Z,69.70
2018-08-22T11:10:18.671Z,64.40
2018-08-22T11:12:48.108Z,64.60
2018-08-22T11:15:17.390Z,63.20
2018-08-22T11:17:46.706Z,66.10
2018-08-22T11:20:15.987Z,61.70
2018-08-22T11:25:30.165Z,59.60
2018-08-22T11:28:10.279Z,61.20
2018-08-22T11:30:50.291Z,59.00
2018-08-22T11:33:30.494Z,58.70
2018-08-22T11:37:01.018Z,58.30
2018-08-22T11:39:30.460Z,59.40
2018-08-22T11:41:59.830Z,57.60
2018-08-22T17:13:52.731Z,47.90
2018-08-22T17:18:51.959Z,48.30
2018-08-22T17:21:21.260Z,48.70
2018-08-22T17:23:50.989Z,48.90
2018-08-22T17:26:21.226Z,49.70
2018-08-22T17:28:52.032Z,47.80
2018-08-22T17:31:22.204Z,49.20
2018-08-22T17:33:53.795Z,49.90
2018-08-22T17:36:23.247Z,50.10
2018-08-22T17:38:54.026Z,51.50
2018-08-22T17:41:24.829Z,52.40
2018-08-22T17:44:04.678Z,53.20
2018-08-22T17:46:39.438Z,53.80
2018-08-22T17:49:08.787Z,54.70
2018-08-22T17:51:53.696Z,54.30
2018-08-22T17:54:23.123Z,54.40
2018-08-22T17:57:02.289Z,54.70
2018-08-22T17:59:31.603Z,54.60
2018-08-22T18:02:01.024Z,55.40
2018-08-22T18:04:40.066Z,55.80
2018-08-22T18:07:09.425Z,56.80
2018-08-22T18:09:38.755Z,56.00
2018-08-22T18:12:08.084Z,56.10
2018-08-22T18:14:37.449Z,56.40
2018-08-22T18:17:07.319Z,56.60
2018-08-22T18:19:38.681Z,56.70
2018-08-22T18:22:08.650Z,56.80
2018-08-22T18:24:48.495Z,56.60
2018-08-22T18:27:17.839Z,57.50
2018-08-22T18:29:47.509Z,57.50
2018-08-22T18:32:17.228Z,57.40
2018-08-22T18:34:58.865Z,57.60
2018-08-22T18:37:29.614Z,57.90
2018-08-22T18:40:10.231Z,57.60
2018-08-22T18:42:39.872Z,58.70
2018-08-22T18:45:09.191Z,59.10
2018-08-22T18:47:38.552Z,59.00
2018-08-22T18:50:07.879Z,58.90
2018-08-22T18:52:37.188Z,59.00
2018-08-22T18:55:06.611Z,59.80
2018-08-22T18:57:35.754Z,59.90
2018-08-22T19:00:07.394Z,59.70
2018-08-22T19:02:36.675Z,60.00
2018-08-22T19:05:27.503Z,59.40
2018-08-22T19:08:06.895Z,60.10
2018-08-22T19:10:38.173Z,60.80
2018-08-22T19:13:26.524Z,61.10
2018-08-22T19:16:11.506Z,60.30
2018-08-22T19:18:40.939Z,61.90
2018-08-22T19:21:11.287Z,61.60
2018-08-22T19:23:40.827Z,61.90
2018-08-22T19:26:10.135Z,62.50
2018-08-22T19:28:54.434Z,62.80
2018-08-22T19:31:23.785Z,62.90
2018-08-22T19:33:53.135Z,63.90
2018-08-22T19:36:22.459Z,64.70
2018-08-22T19:38:56.243Z,64.50
2018-08-22T19:41:30.571Z,64.40
2018-08-22T19:43:59.939Z,64.70
2018-08-22T19:46:29.224Z,63.70
2018-08-22T19:48:58.983Z,65.00
2018-08-22T19:51:28.195Z,64.80
2018-08-22T19:54:08.732Z,62.90
2018-08-22T19:56:38.035Z,64.20
2018-08-22T19:59:07.382Z,66.10
2018-08-22T20:01:37.929Z,66.60
2018-08-22T20:04:07.331Z,66.30
2018-08-22T20:06:36.914Z,64.90
2018-08-22T20:09:07.112Z,66.40
2018-08-22T20:11:36.491Z,67.30
2018-08-22T20:14:06.838Z,67.60
2018-08-22T20:16:36.320Z,68.10
2018-08-22T20:19:05.872Z,68.70
2018-08-22T20:21:37.017Z,69.40
2018-08-22T20:24:08.042Z,69.00
2018-08-22T20:26:37.795Z,67.90
2018-08-22T20:29:07.243Z,67.60
2018-08-22T20:31:37.519Z,67.80
2018-08-22T20:34:12.556Z,67.60
2018-08-22T20:36:46.046Z,69.30
2018-08-22T20:39:15.510Z,71.70
2018-08-22T20:41:45.110Z,69.90
2018-08-22T20:44:22.445Z,73.70
2018-08-22T20:46:51.748Z,71.00
2018-08-22T20:49:21.614Z,71.30
2018-08-22T20:51:50.901Z,72.60
2018-08-22T20:54:22.444Z,70.00
2018-08-22T20:57:01.573Z,71.70
2018-08-22T20:59:30.847Z,71.40
2018-08-22T21:02:03.475Z,73.50
2018-08-22T21:04:32.898Z,72.90
2018-08-22T21:07:02.272Z,72.20
2018-08-22T21:09:31.590Z,73.80
2018-08-22T21:12:01.003Z,71.70
2018-08-22T21:14:34.716Z,72.80
2018-08-22T21:17:03.955Z,74.90
2018-08-22T21:19:33.191Z,75.10
2018-08-22T21:22:02.635Z,77.30
2018-08-22T21:24:32.022Z,76.40
2018-08-22T21:27:01.325Z,75.60
2018-08-22T21:29:30.677Z,76.40
2018-08-22T21:32:00.050Z,74.80
2018-08-22T21:34:29.379Z,76.70
2018-08-22T21:36:58.871Z,77.00
2018-08-22T21:39:28.226Z,76.80
2018-08-22T21:41:57.624Z,76.10
2018-08-22T21:44:39.535Z,77.50
2018-08-22T21:47:09.635Z,78.00
2018-08-22T21:49:38.930Z,77.00
2018-08-22T21:52:08.336Z,80.50
2018-08-22T21:54:37.704Z,79.40
2018-08-22T21:57:07.075Z,81.00
2018-08-22T21:59:36.404Z,80.90
2018-08-22T22:02:06.786Z,84.20
2018-08-22T22:04:37.332Z,85.70
2018-08-22T22:07:07.821Z,86.00
2018-08-22T22:09:46.567Z,87.30
2018-08-22T22:12:21.051Z,84.60
2018-08-22T22:14:50.360Z,85.10
2018-08-22T22:17:19.632Z,89.50
2018-08-22T22:19:48.917Z,90.60
2018-08-22T22:22:18.364Z,90.10
2018-08-22T22:24:56.011Z,90.30
2018-08-22T22:27:25.619Z,90.40
2018-08-22T22:30:05.314Z,92.10
2018-08-22T22:32:35.078Z,91.30
2018-08-22T22:40:55.055Z,93.60
2018-08-22T22:43:24.366Z,94.40
2018-08-22T22:45:53.663Z,95.10
2018-08-22T22:48:33.723Z,96.20
2018-08-22T22:51:03.076Z,97.30
2018-08-22T22:53:32.355Z,97.10
2018-08-22T22:56:01.729Z,98.40
2018-08-22T22:58:31.219Z,98.70
2018-08-22T23:01:00.512Z,99.80
2018-08-22T23:03:29.743Z,97.90
2018-08-22T23:05:59.044Z,99.90
2018-08-22T23:08:28.368Z,99.90
2018-08-22T23:10:57.651Z,99.90
2018-08-22T23:13:28.602Z,99.90
2018-08-22T23:15:57.932Z,99.90
2018-08-22T23:18:27.279Z,99.90
2018-08-22T23:20:56.587Z,99.90
2018-08-22T23:23:32.852Z,99.90
2018-08-22T23:26:09.042Z,99.90
2018-08-22T23:28:38.318Z,99.90
2018-08-22T23:31:07.567Z,99.90
2018-08-22T23:33:36.854Z,99.90
2018-08-22T23:36:06.162Z,99.90
2018-08-22T23:38:37.361Z,99.90
2018-08-22T23:41:06.676Z,98.60
2018-08-22T23:43:55.132Z,99.90
2018-08-22T23:46:24.464Z,99.90
2018-08-22T23:48:56.866Z,99.90
2018-08-22T23:51:26.303Z,99.90
2018-08-22T23:53:59.713Z,99.90
2018-08-22T23:56:29.996Z,99.90
2018-08-22T23:58:59.764Z,99.90
